createdAt,value
2022-11-24T00:02:25.000Z,6.91
2022-11-24T00:07:25.000Z,7.11
2022-11-24T00:12:24.000Z,7.15
2022-11-24T00:17:24.000Z,6.86
2022-11-24T00:22:24.000Z,6.96
2022-11-24T00:27:24.000Z,7.78
2022-11-24T00:32:25.000Z,6.84
2022-11-24T00:37:24.000Z,6.78
2022-11-24T00:47:25.000Z,7.27
2022-11-24T00:52:24.000Z,7.4
2022-11-24T00:57:25.000Z,7.4
2022-11-24T01:02:24.000Z,7.46
2022-11-24T01:07:24.000Z,7.65
2022-11-24T01:12:24.000Z,7.62
2022-11-24T01:17:25.000Z,7.56
2022-11-24T01:22:25.000Z,7.61
2022-11-24T01:27:25.000Z,7.78
2022-11-24T01:32:25.000Z,7.37
2022-11-24T01:37:25.000Z,7.37
2022-11-24T01:42:24.000Z,7.6
2022-11-24T01:47:25.000Z,7.36
2022-11-24T01:52:24.000Z,7.35
2022-11-24T01:57:25.000Z,7.24
2022-11-24T02:02:24.000Z,7.35
2022-11-24T02:07:24.000Z,7.29
2022-11-24T02:12:25.000Z,7.54
2022-11-24T02:17:24.000Z,7.28
2022-11-24T02:22:24.000Z,8.13
2022-11-24T02:27:24.000Z,7.79
2022-11-24T02:32:24.000Z,7.36
2022-11-24T02:37:24.000Z,7.28
2022-11-24T02:42:25.000Z,7.6
2022-11-24T02:47:24.000Z,7.82
2022-11-24T02:52:25.000Z,7.6
2022-11-24T02:57:24.000Z,7.68
2022-11-24T03:02:24.000Z,7.49
2022-11-24T03:07:24.000Z,7.47
2022-11-24T03:12:24.000Z,7.25
2022-11-24T03:17:24.000Z,7.63
2022-11-24T03:22:24.000Z,6.82
2022-11-24T03:27:25.000Z,7.27
2022-11-24T03:32:24.000Z,7.21
2022-11-24T03:37:25.000Z,7.28
2022-11-24T03:42:24.000Z,7.35
2022-11-24T03:47:24.000Z,7.35
2022-11-24T03:52:25.000Z,7.3
2022-11-24T03:57:24.000Z,7.73
2022-11-24T04:02:25.000Z,7.53
2022-11-24T04:07:24.000Z,7.37
2022-11-24T04:12:24.000Z,8.13
2022-11-24T04:17:24.000Z,9.09
2022-11-24T04:22:24.000Z,8.05
2022-11-24T04:27:24.000Z,8.06
2022-11-24T04:32:25.000Z,8.27
2022-11-24T04:37:25.000Z,8.48
2022-11-24T04:42:24.000Z,8.84
2022-11-24T04:47:24.000Z,8.87
2022-11-24T04:57:24.000Z,8.81
2022-11-24T05:02:24.000Z,8.7
2022-11-24T05:07:24.000Z,8.75
2022-11-24T05:12:24.000Z,9.22
2022-11-24T05:17:24.000Z,9.51
2022-11-24T05:22:25.000Z,9.56
2022-11-24T05:27:24.000Z,9.32
2022-11-24T05:32:25.000Z,9.48
2022-11-24T05:37:24.000Z,9.77
2022-11-24T05:42:25.000Z,9.96
2022-11-24T05:47:24.000Z,9.74
2022-11-24T05:52:24.000Z,9.63
2022-11-24T05:57:25.000Z,9.3
2022-11-24T06:02:25.000Z,8.85
2022-11-24T06:07:24.000Z,9.27
2022-11-24T06:12:24.000Z,8.6
2022-11-24T06:17:24.000Z,8.56
2022-11-24T06:22:24.000Z,8.86
2022-11-24T06:27:24.000Z,8.86
2022-11-24T06:32:25.000Z,8.77
2022-11-24T06:37:25.000Z,8.71
2022-11-24T06:42:25.000Z,9.27
2022-11-24T06:47:24.000Z,9.09
2022-11-24T06:52:24.000Z,9.41
2022-11-24T06:57:24.000Z,9.19
2022-11-24T07:07:25.000Z,9.06
2022-11-24T07:12:25.000Z,8.66
2022-11-24T07:17:24.000Z,8.9
2022-11-24T07:22:25.000Z,8.89
2022-11-24T07:27:24.000Z,9.01
2022-11-24T07:32:25.000Z,8.84
2022-11-24T07:37:25.000Z,9.15
2022-11-24T07:42:25.000Z,9.12
2022-11-24T07:47:24.000Z,9.27
2022-11-24T07:52:24.000Z,10.13
2022-11-24T07:57:25.000Z,10.23
2022-11-24T08:02:25.000Z,9.85
2022-11-24T08:07:25.000Z,9.39
2022-11-24T08:12:24.000Z,9.55
2022-11-24T08:17:25.000Z,11.44
2022-11-24T08:22:25.000Z,10.87
2022-11-24T08:27:25.000Z,10.17
2022-11-24T08:32:24.000Z,9.7
2022-11-24T08:37:25.000Z,10.03
2022-11-24T08:42:24.000Z,12.48
2022-11-24T08:47:25.000Z,12.78
2022-11-24T08:52:24.000Z,11
2022-11-24T08:57:24.000Z,10.17
2022-11-24T09:02:24.000Z,9.78
2022-11-24T09:07:25.000Z,10.08
2022-11-24T09:12:24.000Z,9.96
2022-11-24T09:17:24.000Z,11.14
2022-11-24T09:22:25.000Z,10.23
2022-11-24T09:27:25.000Z,10.32
2022-11-24T09:32:24.000Z,10.48
2022-11-24T09:37:25.000Z,10.88
2022-11-24T09:42:24.000Z,10.56
2022-11-24T09:47:24.000Z,10.4
2022-11-24T09:52:25.000Z,10.25
2022-11-24T09:57:25.000Z,10.67
2022-11-24T10:02:25.000Z,10.17
2022-11-24T10:07:24.000Z,10.31
2022-11-24T10:12:25.000Z,10.86
2022-11-24T10:22:25.000Z,10.93
2022-11-24T10:27:25.000Z,10.95
2022-11-24T10:32:24.000Z,10.46
2022-11-24T10:42:24.000Z,10.06
2022-11-24T10:47:25.000Z,10.46
2022-11-24T10:52:25.000Z,10.33
2022-11-24T10:57:24.000Z,10.04
2022-11-24T11:02:24.000Z,10.13
2022-11-24T11:07:24.000Z,10.16
2022-11-24T11:12:24.000Z,9.58
2022-11-24T11:17:24.000Z,9.45
2022-11-24T11:22:25.000Z,9.04
2022-11-24T11:27:24.000Z,8.98
2022-11-24T11:37:24.000Z,9.52
2022-11-24T11:42:24.000Z,9.76
2022-11-24T11:47:24.000Z,9.08
2022-11-24T11:52:24.000Z,9.1
2022-11-24T11:57:25.000Z,8.25
2022-11-24T12:02:25.000Z,8.31
2022-11-24T12:07:24.000Z,8.99
2022-11-24T12:12:24.000Z,8.93
2022-11-24T12:17:25.000Z,8.58
2022-11-24T12:22:25.000Z,8.19
2022-11-24T12:27:25.000Z,7.65
2022-11-24T12:32:24.000Z,8.3
2022-11-24T12:37:25.000Z,9.64
2022-11-24T12:42:25.000Z,10.01
2022-11-24T12:47:24.000Z,9.04
2022-11-24T12:52:24.000Z,9.04
2022-11-24T12:57:25.000Z,7.77
2022-11-24T13:02:24.000Z,7.08
2022-11-24T13:07:24.000Z,8.46
2022-11-24T13:12:24.000Z,9.41
2022-11-24T13:17:25.000Z,9.18
2022-11-24T13:22:24.000Z,9.17
2022-11-24T13:27:25.000Z,9.51
2022-11-24T13:32:25.000Z,9.52
2022-11-24T13:37:24.000Z,9.69
2022-11-24T13:42:24.000Z,10.29
2022-11-24T13:47:24.000Z,10.1
2022-11-24T13:52:24.000Z,9.68
2022-11-24T13:57:24.000Z,10.31
2022-11-24T14:02:24.000Z,9.79
2022-11-24T14:07:24.000Z,9.19
2022-11-24T14:12:24.000Z,9.42
2022-11-24T14:17:25.000Z,9.35
2022-11-24T14:22:24.000Z,9.06
2022-11-24T14:27:25.000Z,9.44
2022-11-24T14:32:24.000Z,9.79
2022-11-24T14:37:24.000Z,9.51
2022-11-24T14:42:24.000Z,9.57
2022-11-24T14:47:24.000Z,9.6
2022-11-24T14:52:25.000Z,9.78
2022-11-24T14:57:25.000Z,9.52
2022-11-24T15:02:24.000Z,9.33
2022-11-24T15:07:24.000Z,9.32
2022-11-24T15:12:24.000Z,9.39
2022-11-24T15:17:24.000Z,9.87
2022-11-24T15:22:24.000Z,8.92
2022-11-24T15:27:25.000Z,8.62
2022-11-24T15:32:24.000Z,8.47
2022-11-24T15:37:25.000Z,8.58
2022-11-24T15:42:24.000Z,8.91
2022-11-24T15:52:24.000Z,8.41
2022-11-24T15:57:25.000Z,8.93
2022-11-24T16:02:24.000Z,8.4
2022-11-24T16:07:24.000Z,8.34
2022-11-24T16:12:24.000Z,8.26
2022-11-24T16:17:25.000Z,7.93
2022-11-24T16:22:24.000Z,7.94
2022-11-24T16:27:24.000Z,7.93
2022-11-24T16:32:24.000Z,7.35
2022-11-24T16:37:24.000Z,8.3
2022-11-24T16:42:25.000Z,8.29
2022-11-24T16:47:24.000Z,8.66
2022-11-24T16:52:24.000Z,7.84
2022-11-24T16:57:24.000Z,7.07
2022-11-24T17:02:24.000Z,7.41
2022-11-24T17:07:24.000Z,7.35
2022-11-24T17:17:24.000Z,9.33
2022-11-24T17:22:25.000Z,8.89
2022-11-24T17:27:24.000Z,10.49
2022-11-24T17:32:25.000Z,9.19
2022-11-24T17:37:25.000Z,8.14
2022-11-24T17:42:24.000Z,7.73
2022-11-24T17:47:25.000Z,7.48
2022-11-24T17:52:24.000Z,8.08
2022-11-24T17:57:24.000Z,8.13
2022-11-24T18:02:24.000Z,8.88
2022-11-24T18:07:24.000Z,7.81
2022-11-24T18:12:24.000Z,7.26
2022-11-24T18:22:24.000Z,8.08
2022-11-24T18:27:24.000Z,8.17
2022-11-24T18:32:24.000Z,8.82
2022-11-24T18:42:24.000Z,8.57
2022-11-24T18:47:24.000Z,8.29
2022-11-24T18:52:24.000Z,8.22
2022-11-24T18:57:24.000Z,8.13
2022-11-24T19:02:25.000Z,7.99
2022-11-24T19:07:24.000Z,7.75
2022-11-24T19:12:24.000Z,7.78
2022-11-24T19:17:24.000Z,6.74
2022-11-24T19:22:25.000Z,6.24
2022-11-24T19:27:25.000Z,6.4
2022-11-24T19:32:24.000Z,6.81
2022-11-24T19:37:25.000Z,6.97
2022-11-24T19:42:24.000Z,6.8
2022-11-24T19:47:24.000Z,6.89
2022-11-24T19:52:24.000Z,6.89
2022-11-24T19:57:25.000Z,6.85
2022-11-24T20:02:24.000Z,7.08
2022-11-24T20:07:24.000Z,7.38
2022-11-24T20:12:24.000Z,7.44
2022-11-24T20:17:24.000Z,6.93
2022-11-24T20:22:25.000Z,6.86
2022-11-24T20:27:24.000Z,6.85
2022-11-24T20:32:24.000Z,6.75
2022-11-24T20:37:25.000Z,6.69
2022-11-24T20:42:24.000Z,6.64
2022-11-24T20:47:25.000Z,6.52
2022-11-24T20:52:24.000Z,6.16
2022-11-24T20:57:24.000Z,6.58
2022-11-24T21:02:24.000Z,6.35
2022-11-24T21:07:24.000Z,6.01
2022-11-24T21:12:24.000Z,5.73
2022-11-24T21:17:24.000Z,5.84
2022-11-24T21:22:24.000Z,5.56
2022-11-24T21:27:24.000Z,5.67
2022-11-24T21:32:25.000Z,5.37
2022-11-24T21:37:24.000Z,4.96
2022-11-24T21:42:25.000Z,4.82
2022-11-24T21:47:24.000Z,4.91
2022-11-24T21:52:24.000Z,5.32
2022-11-24T21:57:25.000Z,4.95
2022-11-24T22:02:25.000Z,4.81
2022-11-24T22:07:24.000Z,4.24
2022-11-24T22:12:24.000Z,3.93
2022-11-24T22:17:24.000Z,4.28
2022-11-24T22:22:25.000Z,4.23
2022-11-24T22:27:24.000Z,3.82
2022-11-24T22:32:24.000Z,4.04
2022-11-24T22:37:24.000Z,4.14
2022-11-24T22:42:25.000Z,4.19
2022-11-24T22:47:25.000Z,4.04
2022-11-24T22:52:24.000Z,4.35
2022-11-24T22:57:24.000Z,5.64
2022-11-24T23:02:24.000Z,4.71
2022-11-24T23:07:24.000Z,4.45
2022-11-24T23:12:25.000Z,4.54
2022-11-24T23:17:24.000Z,4.39
2022-11-24T23:22:24.000Z,4.37
2022-11-24T23:27:25.000Z,4.54
2022-11-24T23:32:24.000Z,4.69
2022-11-24T23:37:25.000Z,4.93
2022-11-24T23:42:24.000Z,5.05
2022-11-24T23:47:25.000Z,5.02
2022-11-24T23:52:24.000Z,4.79
2022-11-24T23:57:24.000Z,4.26
